sensor_id;sensor_type;location;lat;lon;timestamp;pressure;altitude;pressure_sealevel;temperature;humidity
55418;BME280;41287;47.554;7.844;2023-05-12T00:01:26;97699.84;;;19.98;56.24
55418;BME280;41287;47.554;7.844;2023-05-12T00:03:52;97693.25;;;19.99;56.18
55418;BME280;41287;47.554;7.844;2023-05-12T00:06:18;97693.25;;;19.99;56.25
55418;BME280;41287;47.554;7.844;2023-05-12T00:08:44;97687.41;;;19.97;56.27
55418;BME280;41287;47.554;7.844;2023-05-12T00:11:09;97691.69;;;19.98;56.28
55418;BME280;41287;47.554;7.844;2023-05-12T00:13:35;97691.69;;;19.98;56.21
55418;BME280;41287;47.554;7.844;2023-05-12T00:16:01;97697.13;;;19.98;56.22
55418;BME280;41287;47.554;7.844;2023-05-12T00:18:26;97697.13;;;19.98;56.28
55418;BME280;41287;47.554;7.844;2023-05-12T00:20:52;97690.13;;;19.97;56.05
55418;BME280;41287;47.554;7.844;2023-05-12T00:23:21;97690.13;;;19.97;56.31
55418;BME280;41287;47.554;7.844;2023-05-12T00:25:47;97691.69;;;19.98;56.33
55418;BME280;41287;47.554;7.844;2023-05-12T00:28:12;97692.84;;;19.97;56.44
55418;BME280;41287;47.554;7.844;2023-05-12T00:30:37;97690.13;;;19.97;56.33
55418;BME280;41287;47.554;7.844;2023-05-12T00:33:03;97686.25;;;19.98;56.36
55418;BME280;41287;47.554;7.844;2023-05-12T00:35:30;97688.97;;;19.98;56.28
55418;BME280;41287;47.554;7.844;2023-05-12T00:37:57;97691.69;;;19.98;56.30
55418;BME280;41287;47.554;7.844;2023-05-12T00:40:23;97677.31;;;19.98;56.34
55418;BME280;41287;47.554;7.844;2023-05-12T00:42:48;97676.53;;;19.97;56.30
55418;BME280;41287;47.554;7.844;2023-05-12T00:45:14;97679.25;;;19.97;56.32
55418;BME280;41287;47.554;7.844;2023-05-12T00:47:39;97673.00;;;19.97;56.33
55418;BME280;41287;47.554;7.844;2023-05-12T00:50:06;97671.88;;;19.98;56.33
55418;BME280;41287;47.554;7.844;2023-05-12T00:52:32;97668.38;;;19.97;56.42
55418;BME280;41287;47.554;7.844;2023-05-12T00:54:59;97662.91;;;19.97;56.37
55418;BME280;41287;47.554;7.844;2023-05-12T00:57:25;97656.69;;;19.97;56.42
55418;BME280;41287;47.554;7.844;2023-05-12T00:59:52;97657.84;;;19.96;56.40
55418;BME280;41287;47.554;7.844;2023-05-12T01:02:18;97655.09;;;19.96;56.34
55418;BME280;41287;47.554;7.844;2023-05-12T01:04:44;97653.97;;;19.97;56.49
55418;BME280;41287;47.554;7.844;2023-05-12T01:07:16;97653.19;;;19.96;56.32
55418;BME280;41287;47.554;7.844;2023-05-12T01:09:42;97656.69;;;19.97;56.46
55418;BME280;41287;47.554;7.844;2023-05-12T01:12:07;97657.47;;;19.97;56.42
55418;BME280;41287;47.554;7.844;2023-05-12T01:14:33;97652.03;;;19.97;56.39
55418;BME280;41287;47.554;7.844;2023-05-12T01:17:00;97650.47;;;19.96;56.52
55418;BME280;41287;47.554;7.844;2023-05-12T01:19:39;97657.03;;;19.95;56.54
55418;BME280;41287;47.554;7.844;2023-05-12T01:22:06;97657.47;;;19.97;56.44
55418;BME280;41287;47.554;7.844;2023-05-12T01:24:35;97646.16;;;19.95;56.45
55418;BME280;41287;47.554;7.844;2023-05-12T01:27:03;97653.19;;;19.96;56.33
55418;BME280;41287;47.554;7.844;2023-05-12T01:29:29;97653.19;;;19.96;56.45
55418;BME280;41287;47.554;7.844;2023-05-12T01:31:56;97650.47;;;19.96;56.45
55418;BME280;41287;47.554;7.844;2023-05-12T01:34:23;97651.59;;;19.95;56.54
55418;BME280;41287;47.554;7.844;2023-05-12T01:36:50;97657.84;;;19.96;56.55
55418;BME280;41287;47.554;7.844;2023-05-12T01:39:15;97654.31;;;19.95;56.56
55418;BME280;41287;47.554;7.844;2023-05-12T01:41:41;97654.31;;;19.95;56.52
55418;BME280;41287;47.554;7.844;2023-05-12T01:44:06;97666.78;;;19.96;56.57
55418;BME280;41287;47.554;7.844;2023-05-12T01:46:32;97660.91;;;19.94;56.61
55418;BME280;41287;47.554;7.844;2023-05-12T01:48:57;97669.06;;;19.94;56.47
55418;BME280;41287;47.554;7.844;2023-05-12T01:51:22;97661.69;;;19.95;56.64
55418;BME280;41287;47.554;7.844;2023-05-12T01:53:47;97667.13;;;19.95;56.54
55418;BME280;41287;47.554;7.844;2023-05-12T01:56:15;97665.19;;;19.95;56.58
55418;BME280;41287;47.554;7.844;2023-05-12T01:58:40;97671.78;;;19.94;56.65
55418;BME280;41287;47.554;7.844;2023-05-12T02:01:06;97665.53;;;19.94;56.62
55418;BME280;41287;47.554;7.844;2023-05-12T02:03:31;97669.06;;;19.94;56.65
55418;BME280;41287;47.554;7.844;2023-05-12T02:05:56;97658.53;;;19.93;56.59
55418;BME280;41287;47.554;7.844;2023-05-12T02:08:23;97655.81;;;19.93;56.60
55418;BME280;41287;47.554;7.844;2023-05-12T02:10:49;97665.53;;;19.94;56.67
55418;BME280;41287;47.554;7.844;2023-05-12T02:13:15;97661.25;;;19.93;56.70
55418;BME280;41287;47.554;7.844;2023-05-12T02:15:40;97656.97;;;19.92;56.73
55418;BME280;41287;47.554;7.844;2023-05-12T02:18:05;97659.69;;;19.92;56.67
55418;BME280;41287;47.554;7.844;2023-05-12T02:20:31;97656.97;;;19.92;56.73
55418;BME280;41287;47.554;7.844;2023-05-12T02:22:57;97660.47;;;19.92;56.64
55418;BME280;41287;47.554;7.844;2023-05-12T02:25:22;97659.69;;;19.92;56.60
55418;BME280;41287;47.554;7.844;2023-05-12T02:27:49;97658.09;;;19.91;56.75
55418;BME280;41287;47.554;7.844;2023-05-12T02:30:14;97661.63;;;19.91;56.79
55418;BME280;41287;47.554;7.844;2023-05-12T02:32:40;97665.13;;;19.92;56.75
55418;BME280;41287;47.554;7.844;2023-05-12T02:35:06;97661.63;;;19.91;56.76
55418;BME280;41287;47.554;7.844;2023-05-12T02:37:32;97665.47;;;19.90;56.80
55418;BME280;41287;47.554;7.844;2023-05-12T02:39:59;97660.81;;;19.91;56.75
55418;BME280;41287;47.554;7.844;2023-05-12T02:42:25;97668.97;;;19.91;56.83
55418;BME280;41287;47.554;7.844;2023-05-12T02:44:52;97661.63;;;19.91;56.85
55418;BME280;41287;47.554;7.844;2023-05-12T02:47:18;97671.69;;;19.91;57.16
55418;BME280;41287;47.554;7.844;2023-05-12T02:49:45;97662.75;;;19.90;56.78
55418;BME280;41287;47.554;7.844;2023-05-12T02:52:11;97666.25;;;19.91;56.92
55418;BME280;41287;47.554;7.844;2023-05-12T02:54:36;97660.03;;;19.90;56.82
55418;BME280;41287;47.554;7.844;2023-05-12T02:57:05;97661.97;;;19.90;56.76
55418;BME280;41287;47.554;7.844;2023-05-12T02:59:30;97655.72;;;19.89;56.77
55418;BME280;41287;47.554;7.844;2023-05-12T03:01:56;97657.31;;;19.90;56.83
55418;BME280;41287;47.554;7.844;2023-05-12T03:04:21;97658.44;;;19.89;56.89
55418;BME280;41287;47.554;7.844;2023-05-12T03:06:49;97650.28;;;19.89;56.80
55418;BME280;41287;47.554;7.844;2023-05-12T03:09:16;97653.00;;;19.89;56.84
55418;BME280;41287;47.554;7.844;2023-05-12T03:11:42;97653.81;;;19.90;56.83
55418;BME280;41287;47.554;7.844;2023-05-12T03:14:07;97654.94;;;19.89;56.77
55418;BME280;41287;47.554;7.844;2023-05-12T03:16:32;97653.00;;;19.89;56.82
55418;BME280;41287;47.554;7.844;2023-05-12T03:18:58;97649.50;;;19.89;56.82
55418;BME280;41287;47.554;7.844;2023-05-12T03:21:23;97648.72;;;19.88;56.83
55418;BME280;41287;47.554;7.844;2023-05-12T03:23:48;97646.78;;;19.89;56.88
55418;BME280;41287;47.554;7.844;2023-05-12T03:26:13;97649.50;;;19.89;56.89
55418;BME280;41287;47.554;7.844;2023-05-12T03:28:39;97646.78;;;19.89;56.91
55418;BME280;41287;47.554;7.844;2023-05-12T03:31:04;97643.28;;;19.88;56.90
55418;BME280;41287;47.554;7.844;2023-05-12T03:33:32;97637.03;;;19.88;56.88
55418;BME280;41287;47.554;7.844;2023-05-12T03:35:58;97646.00;;;19.88;56.88
55418;BME280;41287;47.554;7.844;2023-05-12T03:38:24;97639.75;;;19.88;56.85
55418;BME280;41287;47.554;7.844;2023-05-12T03:40:49;97639.75;;;19.88;56.92
55418;BME280;41287;47.554;7.844;2023-05-12T03:43:17;97638.19;;;19.87;56.85
55418;BME280;41287;47.554;7.844;2023-05-12T03:45:43;97639.75;;;19.88;56.90
55418;BME280;41287;47.554;7.844;2023-05-12T03:48:09;97638.97;;;19.87;56.92
55418;BME280;41287;47.554;7.844;2023-05-12T03:50:34;97638.97;;;19.87;56.90
55418;BME280;41287;47.554;7.844;2023-05-12T03:52:59;97633.88;;;19.86;56.89
55418;BME280;41287;47.554;7.844;2023-05-12T03:55:25;97635.47;;;19.87;57.14
55418;BME280;41287;47.554;7.844;2023-05-12T03:57:50;97637.38;;;19.86;56.97
55418;BME280;41287;47.554;7.844;2023-05-12T04:00:18;97634.66;;;19.86;57.00
55418;BME280;41287;47.554;7.844;2023-05-12T04:02:43;97629.22;;;19.86;56.88
55418;BME280;41287;47.554;7.844;2023-05-12T04:05:09;97630.41;;;19.85;57.12
55418;BME280;41287;47.554;7.844;2023-05-12T04:07:36;97631.16;;;19.86;56.99
55418;BME280;41287;47.554;7.844;2023-05-12T04:10:02;97631.59;;;19.88;56.98
55418;BME280;41287;47.554;7.844;2023-05-12T04:12:28;97629.78;;;19.92;57.13
55418;BME280;41287;47.554;7.844;2023-05-12T04:14:53;97625.19;;;19.96;57.43
55418;BME280;41287;47.554;7.844;2023-05-12T04:17:18;97626.50;;;20.02;58.13
55418;BME280;41287;47.554;7.844;2023-05-12T04:19:45;97636.31;;;20.06;58.93
55418;BME280;41287;47.554;7.844;2023-05-12T04:22:11;97631.75;;;20.10;60.00
55418;BME280;41287;47.554;7.844;2023-05-12T04:24:36;97634.53;;;20.14;60.96
55418;BME280;41287;47.554;7.844;2023-05-12T04:27:03;97631.91;;;20.18;61.96
55418;BME280;41287;47.554;7.844;2023-05-12T04:29:30;97637.44;;;20.21;62.95
55418;BME280;41287;47.554;7.844;2023-05-12T04:31:57;97639.44;;;20.24;63.87
55418;BME280;41287;47.554;7.844;2023-05-12T04:34:24;97635.66;;;20.29;64.58
55418;BME280;41287;47.554;7.844;2023-05-12T04:36:49;97640.41;;;20.32;64.72
55418;BME280;41287;47.554;7.844;2023-05-12T04:39:14;97636.00;;;20.27;62.67
55418;BME280;41287;47.554;7.844;2023-05-12T04:41:40;97640.16;;;20.21;61.53
55418;BME280;41287;47.554;7.844;2023-05-12T04:44:05;97637.25;;;20.14;60.81
55418;BME280;41287;47.554;7.844;2023-05-12T04:46:31;97642.63;;;20.10;60.44
55418;BME280;41287;47.554;7.844;2023-05-12T04:48:56;97650.69;;;20.07;60.02
55418;BME280;41287;47.554;7.844;2023-05-12T04:51:21;97644.06;;;20.04;59.92
55418;BME280;41287;47.554;7.844;2023-05-12T04:53:49;97652.13;;;20.01;59.62
55418;BME280;41287;47.554;7.844;2023-05-12T04:56:14;97648.97;;;19.99;59.57
55418;BME280;41287;47.554;7.844;2023-05-12T04:58:40;97653.63;;;19.98;59.61
55418;BME280;41287;47.554;7.844;2023-05-12T05:01:05;97657.84;;;19.96;59.61
55418;BME280;41287;47.554;7.844;2023-05-12T05:03:31;97658.19;;;19.94;59.44
55418;BME280;41287;47.554;7.844;2023-05-12T05:05:58;97664.75;;;19.93;59.18
55418;BME280;41287;47.554;7.844;2023-05-12T05:08:25;97655.03;;;19.92;59.20
55418;BME280;41287;47.554;7.844;2023-05-12T05:10:51;97667.06;;;19.91;59.01
55418;BME280;41287;47.554;7.844;2023-05-12T05:13:16;97670.13;;;19.90;59.05
55418;BME280;41287;47.554;7.844;2023-05-12T05:15:51;97657.22;;;19.87;59.08
55418;BME280;41287;47.554;7.844;2023-05-12T05:18:17;97664.22;;;19.88;59.07
55418;BME280;41287;47.554;7.844;2023-05-12T05:20:43;97662.66;;;19.87;58.95
55418;BME280;41287;47.554;7.844;2023-05-12T05:23:09;97670.81;;;19.87;58.72
55418;BME280;41287;47.554;7.844;2023-05-12T05:25:35;97674.66;;;19.86;58.60
55418;BME280;41287;47.554;7.844;2023-05-12T05:28:00;97665.75;;;19.85;58.31
55418;BME280;41287;47.554;7.844;2023-05-12T05:30:27;97666.50;;;19.86;58.22
55418;BME280;41287;47.554;7.844;2023-05-12T05:32:54;97666.94;;;19.88;58.10
55418;BME280;41287;47.554;7.844;2023-05-12T05:35:19;97668.53;;;19.89;58.13
55418;BME280;41287;47.554;7.844;2023-05-12T05:37:45;97669.31;;;19.89;58.10
55418;BME280;41287;47.554;7.844;2023-05-12T05:40:13;97671.69;;;19.91;58.02
55418;BME280;41287;47.554;7.844;2023-05-12T05:42:38;97670.13;;;19.90;58.06
55418;BME280;41287;47.554;7.844;2023-05-12T05:45:04;97676.34;;;19.90;58.03
55418;BME280;41287;47.554;7.844;2023-05-12T05:47:30;97669.78;;;19.91;58.06
55418;BME280;41287;47.554;7.844;2023-05-12T05:49:56;97673.28;;;19.92;57.95
55418;BME280;41287;47.554;7.844;2023-05-12T05:52:23;97673.28;;;19.92;57.97
55418;BME280;41287;47.554;7.844;2023-05-12T05:54:51;97668.19;;;19.90;57.98
55418;BME280;41287;47.554;7.844;2023-05-12T05:57:16;97677.94;;;19.91;57.96
55418;BME280;41287;47.554;7.844;2023-05-12T05:59:42;97680.66;;;19.91;57.95
55418;BME280;41287;47.554;7.844;2023-05-12T06:02:08;97673.63;;;19.90;57.91
55418;BME280;41287;47.554;7.844;2023-05-12T06:04:33;97673.63;;;19.90;57.93
55418;BME280;41287;47.554;7.844;2023-05-12T06:07:01;97684.50;;;19.90;57.99
55418;BME280;41287;47.554;7.844;2023-05-12T06:09:27;97677.94;;;19.91;57.87
55418;BME280;41287;47.554;7.844;2023-05-12T06:11:54;97679.84;;;19.91;57.94
55418;BME280;41287;47.554;7.844;2023-05-12T06:14:19;97680.66;;;19.91;57.91
55418;BME280;41287;47.554;7.844;2023-05-12T06:16:45;97677.13;;;19.91;57.81
55418;BME280;41287;47.554;7.844;2023-05-12T06:19:10;97686.09;;;19.91;57.87
55418;BME280;41287;47.554;7.844;2023-05-12T06:21:36;97686.44;;;19.90;57.87
55418;BME280;41287;47.554;7.844;2023-05-12T06:24:04;97690.72;;;19.91;57.89
55418;BME280;41287;47.554;7.844;2023-05-12T06:26:31;97686.44;;;19.90;57.79
55418;BME280;41287;47.554;7.844;2023-05-12T06:28:57;97685.28;;;19.91;57.84
55418;BME280;41287;47.554;7.844;2023-05-12T06:31:22;97691.88;;;19.90;57.84
55418;BME280;41287;47.554;7.844;2023-05-12T06:33:48;97689.94;;;19.90;57.88
55418;BME280;41287;47.554;7.844;2023-05-12T06:36:13;97685.63;;;19.89;57.81
55418;BME280;41287;47.554;7.844;2023-05-12T06:38:39;97691.06;;;19.89;57.79
55418;BME280;41287;47.554;7.844;2023-05-12T06:41:04;97684.84;;;19.89;57.86
55418;BME280;41287;47.554;7.844;2023-05-12T06:43:29;97682.13;;;19.89;58.01
55418;BME280;41287;47.554;7.844;2023-05-12T06:45:57;97685.97;;;19.88;57.84
55418;BME280;41287;47.554;7.844;2023-05-12T06:48:22;97684.06;;;19.88;57.78
55418;BME280;41287;47.554;7.844;2023-05-12T06:50:48;97694.94;;;19.88;57.80
55418;BME280;41287;47.554;7.844;2023-05-12T06:53:13;97687.56;;;19.89;57.79
55418;BME280;41287;47.554;7.844;2023-05-12T06:55:43;97689.84;;;19.87;57.73
55418;BME280;41287;47.554;7.844;2023-05-12T06:58:10;97689.84;;;19.87;57.81
55418;BME280;41287;47.554;7.844;2023-05-12T07:00:37;97696.06;;;19.87;57.78
55418;BME280;41287;47.554;7.844;2023-05-12T07:03:03;97698.00;;;19.87;57.84
55418;BME280;41287;47.554;7.844;2023-05-12T07:05:28;97693.69;;;19.86;57.80
55418;BME280;41287;47.554;7.844;2023-05-12T07:07:55;97691.78;;;19.86;57.88
55418;BME280;41287;47.554;7.844;2023-05-12T07:10:23;97692.13;;;19.85;57.81
55418;BME280;41287;47.554;7.844;2023-05-12T07:12:48;97694.88;;;19.85;57.87
55418;BME280;41287;47.554;7.844;2023-05-12T07:15:15;97692.13;;;19.85;57.86
55418;BME280;41287;47.554;7.844;2023-05-12T07:17:41;97694.88;;;19.85;57.80
55418;BME280;41287;47.554;7.844;2023-05-12T07:20:07;97700.66;;;19.83;57.81
55418;BME280;41287;47.554;7.844;2023-05-12T07:22:33;97695.53;;;19.82;57.88
55418;BME280;41287;47.554;7.844;2023-05-12T07:24:58;97699.84;;;19.83;57.82
55418;BME280;41287;47.554;7.844;2023-05-12T07:27:23;97695.19;;;19.83;57.81
55418;BME280;41287;47.554;7.844;2023-05-12T07:29:49;97687.38;;;19.82;57.84
55418;BME280;41287;47.554;7.844;2023-05-12T07:32:14;97688.19;;;19.82;57.81
55418;BME280;41287;47.554;7.844;2023-05-12T07:34:42;97691.69;;;19.83;57.82
55418;BME280;41287;47.554;7.844;2023-05-12T07:37:09;97690.91;;;19.82;57.77
55418;BME280;41287;47.554;7.844;2023-05-12T07:39:35;97696.34;;;19.82;57.75
55418;BME280;41287;47.554;7.844;2023-05-12T07:42:00;97692.03;;;19.81;57.78
55418;BME280;41287;47.554;7.844;2023-05-12T07:44:26;97689.31;;;19.81;57.66
55418;BME280;41287;47.554;7.844;2023-05-12T07:46:52;97697.47;;;19.81;57.81
55418;BME280;41287;47.554;7.844;2023-05-12T07:49:18;97692.81;;;19.82;57.74
55418;BME280;41287;47.554;7.844;2023-05-12T07:51:43;97678.44;;;19.81;57.82
55418;BME280;41287;47.554;7.844;2023-05-12T07:54:09;97679.22;;;19.82;57.79
55418;BME280;41287;47.554;7.844;2023-05-12T07:56:37;97681.16;;;19.81;57.74
55418;BME280;41287;47.554;7.844;2023-05-12T07:59:02;97690.13;;;19.82;57.72
55418;BME280;41287;47.554;7.844;2023-05-12T08:01:28;97694.75;;;19.81;57.85
55418;BME280;41287;47.554;7.844;2023-05-12T08:03:53;97682.31;;;19.80;57.85
55418;BME280;41287;47.554;7.844;2023-05-12T08:06:19;97692.38;;;19.80;57.79
55418;BME280;41287;47.554;7.844;2023-05-12T08:08:45;97687.75;;;19.80;57.78
55418;BME280;41287;47.554;7.844;2023-05-12T08:11:11;97690.44;;;19.80;57.78
55418;BME280;41287;47.554;7.844;2023-05-12T08:13:37;97687.75;;;19.80;57.76
55418;BME280;41287;47.554;7.844;2023-05-12T08:16:02;97685.00;;;19.80;57.74
55418;BME280;41287;47.554;7.844;2023-05-12T08:18:28;97686.94;;;19.80;57.70
55418;BME280;41287;47.554;7.844;2023-05-12T08:20:54;97681.88;;;19.78;57.80
55418;BME280;41287;47.554;7.844;2023-05-12T08:23:21;97681.50;;;19.80;57.74
55418;BME280;41287;47.554;7.844;2023-05-12T08:25:46;97684.59;;;19.78;57.71
55418;BME280;41287;47.554;7.844;2023-05-12T08:28:13;97682.66;;;19.79;57.75
55418;BME280;41287;47.554;7.844;2023-05-12T08:30:38;97690.03;;;19.78;57.76
55418;BME280;41287;47.554;7.844;2023-05-12T08:33:04;97689.25;;;19.78;57.89
55418;BME280;41287;47.554;7.844;2023-05-12T08:35:29;97681.09;;;19.78;57.78
55418;BME280;41287;47.554;7.844;2023-05-12T08:37:55;97690.03;;;19.78;57.75
55418;BME280;41287;47.554;7.844;2023-05-12T08:40:22;97681.44;;;19.76;57.77
55418;BME280;41287;47.554;7.844;2023-05-12T08:43:12;97682.56;;;19.75;57.74
55418;BME280;41287;47.554;7.844;2023-05-12T08:45:42;97687.66;;;19.77;57.73
55418;BME280;41287;47.554;7.844;2023-05-12T08:48:09;97683.81;;;19.78;57.78
55418;BME280;41287;47.554;7.844;2023-05-12T08:50:37;97683.34;;;19.76;57.78
55418;BME280;41287;47.554;7.844;2023-05-12T08:53:06;97688.78;;;19.76;57.74
55418;BME280;41287;47.554;7.844;2023-05-12T08:55:32;97682.22;;;19.77;57.87
55418;BME280;41287;47.554;7.844;2023-05-12T08:57:58;97688.78;;;19.76;57.75
55418;BME280;41287;47.554;7.844;2023-05-12T09:00:27;97681.78;;;19.75;57.81
55418;BME280;41287;47.554;7.844;2023-05-12T09:02:54;97680.63;;;19.76;57.71
55418;BME280;41287;47.554;7.844;2023-05-12T09:05:21;97680.63;;;19.76;57.79
55418;BME280;41287;47.554;7.844;2023-05-12T09:07:48;97683.34;;;19.76;57.81
55418;BME280;41287;47.554;7.844;2023-05-12T09:10:16;97682.56;;;19.75;57.86
55418;BME280;41287;47.554;7.844;2023-05-12T09:12:45;97680.63;;;19.76;57.72
55418;BME280;41287;47.554;7.844;2023-05-12T09:15:15;97676.34;;;19.75;57.74
55418;BME280;41287;47.554;7.844;2023-05-12T09:17:42;97666.25;;;19.75;57.78
55418;BME280;41287;47.554;7.844;2023-05-12T09:20:08;97675.19;;;19.76;57.77
55418;BME280;41287;47.554;7.844;2023-05-12T09:22:34;97677.13;;;19.75;57.76
55418;BME280;41287;47.554;7.844;2023-05-12T09:25:00;97671.69;;;19.75;57.88
55418;BME280;41287;47.554;7.844;2023-05-12T09:27:26;97671.69;;;19.75;57.82
55418;BME280;41287;47.554;7.844;2023-05-12T09:29:52;97680.63;;;19.76;57.74
55418;BME280;41287;47.554;7.844;2023-05-12T09:32:28;97675.91;;;19.72;57.90
55418;BME280;41287;47.554;7.844;2023-05-12T09:34:54;97666.59;;;19.73;57.79
55418;BME280;41287;47.554;7.844;2023-05-12T09:37:29;97671.63;;;19.71;57.91
55418;BME280;41287;47.554;7.844;2023-05-12T09:40:02;97668.53;;;19.73;57.92
55418;BME280;41287;47.554;7.844;2023-05-12T09:42:29;97661.09;;;19.70;57.87
55418;BME280;41287;47.554;7.844;2023-05-12T09:45:01;97663.88;;;19.73;57.76
55418;BME280;41287;47.554;7.844;2023-05-12T09:47:33;97662.31;;;19.72;57.81
55418;BME280;41287;47.554;7.844;2023-05-12T09:50:00;97657.66;;;19.73;57.82
55418;BME280;41287;47.554;7.844;2023-05-12T09:52:26;97669.66;;;19.72;57.89
55418;BME280;41287;47.554;7.844;2023-05-12T09:54:52;97658.78;;;19.72;57.83
55418;BME280;41287;47.554;7.844;2023-05-12T09:57:20;97655.31;;;19.71;57.89
55418;BME280;41287;47.554;7.844;2023-05-12T09:59:48;97658.03;;;19.71;57.89
55418;BME280;41287;47.554;7.844;2023-05-12T10:02:13;97658.03;;;19.71;57.86
55418;BME280;41287;47.554;7.844;2023-05-12T10:04:52;97657.59;;;19.69;57.91
55418;BME280;41287;47.554;7.844;2023-05-12T10:07:21;97659.16;;;19.70;57.92
55418;BME280;41287;47.554;7.844;2023-05-12T10:09:48;97661.50;;;19.72;57.94
55418;BME280;41287;47.554;7.844;2023-05-12T10:12:14;97652.59;;;19.71;57.88
55418;BME280;41287;47.554;7.844;2023-05-12T10:14:40;97649.09;;;19.71;57.88
55418;BME280;41287;47.554;7.844;2023-05-12T10:17:06;97642.06;;;19.70;57.83
55418;BME280;41287;47.554;7.844;2023-05-12T10:19:33;97657.25;;;19.71;57.99
55418;BME280;41287;47.554;7.844;2023-05-12T10:21:59;97639.34;;;19.70;57.87
55418;BME280;41287;47.554;7.844;2023-05-12T10:24:25;97644.00;;;19.69;57.92
55418;BME280;41287;47.554;7.844;2023-05-12T10:26:53;97644.78;;;19.70;57.87
55418;BME280;41287;47.554;7.844;2023-05-12T10:29:20;97643.66;;;19.71;57.92
55418;BME280;41287;47.554;7.844;2023-05-12T10:31:46;97635.84;;;19.69;57.90
55418;BME280;41287;47.554;7.844;2023-05-12T10:34:18;97642.41;;;19.68;57.95
55418;BME280;41287;47.554;7.844;2023-05-12T10:36:47;97643.19;;;19.69;57.94
55418;BME280;41287;47.554;7.844;2023-05-12T10:39:14;97632.31;;;19.69;57.80
55418;BME280;41287;47.554;7.844;2023-05-12T10:41:40;97637.75;;;19.69;57.87
55418;BME280;41287;47.554;7.844;2023-05-12T10:44:06;97633.47;;;19.68;57.92
55418;BME280;41287;47.554;7.844;2023-05-12T10:46:31;97635.03;;;19.69;57.87
55418;BME280;41287;47.554;7.844;2023-05-12T10:48:59;97626.53;;;19.70;57.94
55418;BME280;41287;47.554;7.844;2023-05-12T10:51:27;97620.66;;;19.68;57.80
55418;BME280;41287;47.554;7.844;2023-05-12T10:56:26;97624.50;;;19.67;57.77
55418;BME280;41287;47.554;7.844;2023-05-12T11:01:39;97622.59;;;19.68;57.88
55418;BME280;41287;47.554;7.844;2023-05-12T11:04:10;97625.66;;;19.66;57.94
55418;BME280;41287;47.554;7.844;2023-05-12T11:06:35;97621.81;;;19.67;57.91
55418;BME280;41287;47.554;7.844;2023-05-12T11:09:01;97621.00;;;19.67;57.83
55418;BME280;41287;47.554;7.844;2023-05-12T11:11:28;97627.22;;;19.67;57.88
55418;BME280;41287;47.554;7.844;2023-05-12T11:13:54;97631.88;;;19.67;57.86
55418;BME280;41287;47.554;7.844;2023-05-12T11:16:19;97635.72;;;19.66;57.94
55418;BME280;41287;47.554;7.844;2023-05-12T11:18:44;97637.31;;;19.67;57.92
55418;BME280;41287;47.554;7.844;2023-05-12T11:21:10;97637.66;;;19.65;57.90
55418;BME280;41287;47.554;7.844;2023-05-12T11:23:36;97639.25;;;19.66;57.81
55418;BME280;41287;47.554;7.844;2023-05-12T11:26:02;97639.25;;;19.66;57.82
55418;BME280;41287;47.554;7.844;2023-05-12T11:28:38;97636.09;;;19.64;57.94
55418;BME280;41287;47.554;7.844;2023-05-12T11:31:05;97637.66;;;19.65;57.94
55418;BME280;41287;47.554;7.844;2023-05-12T11:33:32;97639.63;;;19.65;57.90
55418;BME280;41287;47.554;7.844;2023-05-12T11:35:57;97652.03;;;19.66;57.93
55418;BME280;41287;47.554;7.844;2023-05-12T11:38:23;97643.47;;;19.64;57.87
55418;BME280;41287;47.554;7.844;2023-05-12T11:40:51;97645.06;;;19.65;57.95
55418;BME280;41287;47.554;7.844;2023-05-12T11:43:19;97638.44;;;19.66;57.90
55418;BME280;41287;47.554;7.844;2023-05-12T11:45:45;97641.53;;;19.64;58.00
55418;BME280;41287;47.554;7.844;2023-05-12T11:48:11;97641.53;;;19.64;57.98
55418;BME280;41287;47.554;7.844;2023-05-12T11:50:39;97641.53;;;19.64;57.99
55418;BME280;41287;47.554;7.844;2023-05-12T11:53:09;97648.91;;;19.64;57.96
55418;BME280;41287;47.554;7.844;2023-05-12T11:55:36;97652.41;;;19.64;58.07
55418;BME280;41287;47.554;7.844;2023-05-12T11:58:02;97650.03;;;19.63;57.95
55418;BME280;41287;47.554;7.844;2023-05-12T12:00:32;97652.75;;;19.63;57.95
55418;BME280;41287;47.554;7.844;2023-05-12T12:03:12;97645.75;;;19.62;58.11
55418;BME280;41287;47.554;7.844;2023-05-12T12:05:43;97650.84;;;19.63;57.87
55418;BME280;41287;47.554;7.844;2023-05-12T12:08:11;97648.13;;;19.63;58.03
55418;BME280;41287;47.554;7.844;2023-05-12T12:10:38;97653.56;;;19.63;57.91
55418;BME280;41287;47.554;7.844;2023-05-12T12:13:04;97651.97;;;19.62;57.97
55418;BME280;41287;47.554;7.844;2023-05-12T12:15:30;97643.81;;;19.62;58.04
55418;BME280;41287;47.554;7.844;2023-05-12T12:17:55;97641.09;;;19.62;57.97
55418;BME280;41287;47.554;7.844;2023-05-12T12:20:23;97630.22;;;19.62;57.97
55418;BME280;41287;47.554;7.844;2023-05-12T12:22:50;97631.34;;;19.61;57.98
55418;BME280;41287;47.554;7.844;2023-05-12T12:25:15;97629.44;;;19.62;57.90
55418;BME280;41287;47.554;7.844;2023-05-12T12:27:41;97627.84;;;19.61;57.93
55418;BME280;41287;47.554;7.844;2023-05-12T12:30:06;97632.94;;;19.62;57.90
55418;BME280;41287;47.554;7.844;2023-05-12T12:32:35;97630.22;;;19.62;58.00
55418;BME280;41287;47.554;7.844;2023-05-12T12:35:02;97638.38;;;19.62;57.88
55418;BME280;41287;47.554;7.844;2023-05-12T12:37:31;97632.16;;;19.62;57.79
55418;BME280;41287;47.554;7.844;2023-05-12T12:39:56;97631.34;;;19.61;57.98
55418;BME280;41287;47.554;7.844;2023-05-12T12:42:21;97630.56;;;19.61;57.92
55418;BME280;41287;47.554;7.844;2023-05-12T12:44:47;97626.72;;;19.62;57.96
55418;BME280;41287;47.554;7.844;2023-05-12T12:47:14;97621.63;;;19.60;57.92
55418;BME280;41287;47.554;7.844;2023-05-12T12:49:39;97622.41;;;19.61;58.04
55418;BME280;41287;47.554;7.844;2023-05-12T12:52:05;97623.22;;;19.61;57.93
55418;BME280;41287;47.554;7.844;2023-05-12T12:54:30;97618.91;;;19.60;57.95
55418;BME280;41287;47.554;7.844;2023-05-12T12:56:55;97626.25;;;19.60;57.96
55418;BME280;41287;47.554;7.844;2023-05-12T12:59:21;97623.56;;;19.60;57.95
55418;BME280;41287;47.554;7.844;2023-05-12T13:01:47;97620.03;;;19.59;57.95